Terminal Aerodrome Forecast
Issued by NWS

Home | Current Version | Previous Version | Text Only | Print | Product List | Glossary On
Versions: 1 2 3 4 5 6 7 8 9 10 11 12 13 14 15 16 17 18 19 20
000
FTUS42 KTBW 311739
TAFPIE
TAF
KPIE 311739Z 3118/0118 22012KT P6SM VCTS SCT040CB SCT070 BKN100
      TEMPO 3118/3119 VRB15G25KT 3SM TSRA BKN030CB
     FM010000 19008KT P6SM VCTS SCT020CB BKN250
     FM011400 21012KT P6SM VCTS SCT030CB BKN250=

USA.gov is the U.S. government's official web portal to all federal, state and local government web resources and services.